sensor_id;sensor_type;location;lat;lon;timestamp;temperature;humidity
21807;DHT22;11065;50.786;7.840;2024-01-27T00:01:29;9.20;51.30
21807;DHT22;11065;50.786;7.840;2024-01-27T00:03:57;9.20;51.30
21807;DHT22;11065;50.786;7.840;2024-01-27T00:06:25;9.20;51.40
21807;DHT22;11065;50.786;7.840;2024-01-27T00:08:53;9.20;51.30
21807;DHT22;11065;50.786;7.840;2024-01-27T00:11:22;9.20;51.20
21807;DHT22;11065;50.786;7.840;2024-01-27T00:13:53;9.20;51.20
21807;DHT22;11065;50.786;7.840;2024-01-27T00:16:20;9.20;51.10
21807;DHT22;11065;50.786;7.840;2024-01-27T00:18:50;9.20;51.10
21807;DHT22;11065;50.786;7.840;2024-01-27T00:21:18;9.20;51.20
21807;DHT22;11065;50.786;7.840;2024-01-27T00:23:46;9.20;51.30
21807;DHT22;11065;50.786;7.840;2024-01-27T00:26:14;9.20;51.30
21807;DHT22;11065;50.786;7.840;2024-01-27T00:28:42;9.20;51.20
21807;DHT22;11065;50.786;7.840;2024-01-27T00:31:10;9.20;51.30
21807;DHT22;11065;50.786;7.840;2024-01-27T00:33:38;9.20;51.30
21807;DHT22;11065;50.786;7.840;2024-01-27T00:36:07;9.20;51.40
21807;DHT22;11065;50.786;7.840;2024-01-27T00:38:35;9.20;51.40
21807;DHT22;11065;50.786;7.840;2024-01-27T00:41:03;9.10;51.20
21807;DHT22;11065;50.786;7.840;2024-01-27T00:43:31;9.20;51.20
21807;DHT22;11065;50.786;7.840;2024-01-27T00:45:59;9.10;51.20
21807;DHT22;11065;50.786;7.840;2024-01-27T00:48:27;9.10;51.40
21807;DHT22;11065;50.786;7.840;2024-01-27T00:50:55;9.10;51.60
21807;DHT22;11065;50.786;7.840;2024-01-27T00:53:24;9.10;51.40
21807;DHT22;11065;50.786;7.840;2024-01-27T00:55:52;9.10;51.10
21807;DHT22;11065;50.786;7.840;2024-01-27T00:58:20;9.00;51.10
21807;DHT22;11065;50.786;7.840;2024-01-27T01:00:48;9.00;50.90
21807;DHT22;11065;50.786;7.840;2024-01-27T01:03:16;8.90;50.80
21807;DHT22;11065;50.786;7.840;2024-01-27T01:05:44;8.90;50.70
21807;DHT22;11065;50.786;7.840;2024-01-27T01:08:12;8.80;50.60
21807;DHT22;11065;50.786;7.840;2024-01-27T01:10:41;8.70;50.60
21807;DHT22;11065;50.786;7.840;2024-01-27T01:13:09;8.70;50.60
21807;DHT22;11065;50.786;7.840;2024-01-27T01:15:37;8.60;50.60
21807;DHT22;11065;50.786;7.840;2024-01-27T01:18:06;8.60;50.70
21807;DHT22;11065;50.786;7.840;2024-01-27T01:20:34;8.50;50.60
21807;DHT22;11065;50.786;7.840;2024-01-27T01:23:02;8.50;50.70
21807;DHT22;11065;50.786;7.840;2024-01-27T01:25:30;8.40;50.70
21807;DHT22;11065;50.786;7.840;2024-01-27T01:27:59;8.40;50.80
21807;DHT22;11065;50.786;7.840;2024-01-27T01:30:27;8.30;50.80
21807;DHT22;11065;50.786;7.840;2024-01-27T01:32:55;8.30;50.90
21807;DHT22;11065;50.786;7.840;2024-01-27T01:35:23;8.20;50.90
21807;DHT22;11065;50.786;7.840;2024-01-27T01:37:53;8.20;50.90
21807;DHT22;11065;50.786;7.840;2024-01-27T01:40:21;8.20;50.90
21807;DHT22;11065;50.786;7.840;2024-01-27T01:42:51;8.20;50.90
21807;DHT22;11065;50.786;7.840;2024-01-27T01:45:20;8.10;50.90
21807;DHT22;11065;50.786;7.840;2024-01-27T01:47:49;8.10;50.90
21807;DHT22;11065;50.786;7.840;2024-01-27T01:50:17;8.00;50.90
21807;DHT22;11065;50.786;7.840;2024-01-27T01:52:47;8.00;50.90
21807;DHT22;11065;50.786;7.840;2024-01-27T01:55:15;8.00;50.90
21807;DHT22;11065;50.786;7.840;2024-01-27T01:57:43;7.90;50.90
21807;DHT22;11065;50.786;7.840;2024-01-27T02:00:12;8.00;51.00
21807;DHT22;11065;50.786;7.840;2024-01-27T02:02:44;7.80;51.00
21807;DHT22;11065;50.786;7.840;2024-01-27T02:05:12;7.80;51.10
21807;DHT22;11065;50.786;7.840;2024-01-27T02:07:41;7.80;51.00
21807;DHT22;11065;50.786;7.840;2024-01-27T02:10:13;7.70;51.00
21807;DHT22;11065;50.786;7.840;2024-01-27T02:12:42;7.70;51.00
21807;DHT22;11065;50.786;7.840;2024-01-27T02:15:11;7.70;51.00
21807;DHT22;11065;50.786;7.840;2024-01-27T02:17:40;7.50;50.90
21807;DHT22;11065;50.786;7.840;2024-01-27T02:20:10;7.50;50.90
21807;DHT22;11065;50.786;7.840;2024-01-27T02:22:38;7.40;50.90
21807;DHT22;11065;50.786;7.840;2024-01-27T02:25:08;7.40;50.90
21807;DHT22;11065;50.786;7.840;2024-01-27T02:27:36;7.30;50.90
21807;DHT22;11065;50.786;7.840;2024-01-27T02:30:04;7.20;50.90
21807;DHT22;11065;50.786;7.840;2024-01-27T02:32:32;7.10;50.90
21807;DHT22;11065;50.786;7.840;2024-01-27T02:35:00;7.10;50.90
21807;DHT22;11065;50.786;7.840;2024-01-27T02:37:28;7.00;50.90
21807;DHT22;11065;50.786;7.840;2024-01-27T02:39:56;6.90;50.90
21807;DHT22;11065;50.786;7.840;2024-01-27T02:42:26;6.90;51.00
21807;DHT22;11065;50.786;7.840;2024-01-27T02:44:54;6.80;51.10
21807;DHT22;11065;50.786;7.840;2024-01-27T02:47:22;6.80;51.10
21807;DHT22;11065;50.786;7.840;2024-01-27T02:49:50;6.70;51.10
21807;DHT22;11065;50.786;7.840;2024-01-27T02:52:18;6.60;51.20
21807;DHT22;11065;50.786;7.840;2024-01-27T02:54:45;6.60;51.20
21807;DHT22;11065;50.786;7.840;2024-01-27T02:57:14;6.50;51.30
21807;DHT22;11065;50.786;7.840;2024-01-27T02:59:45;6.50;51.40
21807;DHT22;11065;50.786;7.840;2024-01-27T03:02:13;6.40;51.30
21807;DHT22;11065;50.786;7.840;2024-01-27T03:04:41;6.40;51.30
21807;DHT22;11065;50.786;7.840;2024-01-27T03:07:09;6.30;51.30
21807;DHT22;11065;50.786;7.840;2024-01-27T03:09:37;6.20;51.30
21807;DHT22;11065;50.786;7.840;2024-01-27T03:12:06;6.20;51.50
21807;DHT22;11065;50.786;7.840;2024-01-27T03:14:34;6.10;51.50
21807;DHT22;11065;50.786;7.840;2024-01-27T03:17:03;6.10;51.60
21807;DHT22;11065;50.786;7.840;2024-01-27T03:19:31;6.00;51.50
21807;DHT22;11065;50.786;7.840;2024-01-27T03:21:59;6.00;51.60
21807;DHT22;11065;50.786;7.840;2024-01-27T03:24:27;6.00;51.60
21807;DHT22;11065;50.786;7.840;2024-01-27T03:26:55;5.90;51.60
21807;DHT22;11065;50.786;7.840;2024-01-27T03:29:23;5.80;51.60
21807;DHT22;11065;50.786;7.840;2024-01-27T03:31:51;5.80;51.60
21807;DHT22;11065;50.786;7.840;2024-01-27T03:34:21;5.80;51.70
21807;DHT22;11065;50.786;7.840;2024-01-27T03:36:52;5.70;51.70
21807;DHT22;11065;50.786;7.840;2024-01-27T03:39:19;5.70;51.70
21807;DHT22;11065;50.786;7.840;2024-01-27T03:41:47;5.70;51.80
21807;DHT22;11065;50.786;7.840;2024-01-27T03:44:16;5.60;51.70
21807;DHT22;11065;50.786;7.840;2024-01-27T03:46:43;5.60;51.80
21807;DHT22;11065;50.786;7.840;2024-01-27T03:49:11;5.50;51.80
21807;DHT22;11065;50.786;7.840;2024-01-27T03:51:41;5.50;51.90
21807;DHT22;11065;50.786;7.840;2024-01-27T03:54:09;5.50;51.90
21807;DHT22;11065;50.786;7.840;2024-01-27T03:56:37;5.40;51.80
21807;DHT22;11065;50.786;7.840;2024-01-27T03:59:05;5.40;51.90
21807;DHT22;11065;50.786;7.840;2024-01-27T04:01:35;5.30;51.90
21807;DHT22;11065;50.786;7.840;2024-01-27T04:04:03;5.30;51.90
21807;DHT22;11065;50.786;7.840;2024-01-27T04:06:36;5.30;52.00
21807;DHT22;11065;50.786;7.840;2024-01-27T04:09:06;5.20;52.00
21807;DHT22;11065;50.786;7.840;2024-01-27T04:11:36;5.20;52.00
21807;DHT22;11065;50.786;7.840;2024-01-27T04:14:04;5.20;52.10
21807;DHT22;11065;50.786;7.840;2024-01-27T04:16:32;5.10;52.10
21807;DHT22;11065;50.786;7.840;2024-01-27T04:19:00;5.10;52.00
21807;DHT22;11065;50.786;7.840;2024-01-27T04:21:28;5.00;52.00
21807;DHT22;11065;50.786;7.840;2024-01-27T04:23:56;5.00;52.10
21807;DHT22;11065;50.786;7.840;2024-01-27T04:26:26;4.90;52.10
21807;DHT22;11065;50.786;7.840;2024-01-27T04:28:54;4.90;52.20
21807;DHT22;11065;50.786;7.840;2024-01-27T04:31:21;4.90;52.20
21807;DHT22;11065;50.786;7.840;2024-01-27T04:33:49;4.90;52.20
21807;DHT22;11065;50.786;7.840;2024-01-27T04:36:25;4.80;52.20
21807;DHT22;11065;50.786;7.840;2024-01-27T04:38:54;4.80;52.30
21807;DHT22;11065;50.786;7.840;2024-01-27T04:41:22;4.80;52.30
21807;DHT22;11065;50.786;7.840;2024-01-27T04:43:51;4.70;52.40
21807;DHT22;11065;50.786;7.840;2024-01-27T04:46:19;4.70;52.50
21807;DHT22;11065;50.786;7.840;2024-01-27T04:48:47;4.70;52.40
21807;DHT22;11065;50.786;7.840;2024-01-27T04:51:15;4.70;52.40
21807;DHT22;11065;50.786;7.840;2024-01-27T04:53:44;4.60;52.40
21807;DHT22;11065;50.786;7.840;2024-01-27T04:56:12;4.60;52.40
21807;DHT22;11065;50.786;7.840;2024-01-27T04:58:40;4.60;52.50
21807;DHT22;11065;50.786;7.840;2024-01-27T05:01:09;4.50;52.40
21807;DHT22;11065;50.786;7.840;2024-01-27T05:03:37;4.50;52.50
21807;DHT22;11065;50.786;7.840;2024-01-27T05:06:07;4.50;52.50
21807;DHT22;11065;50.786;7.840;2024-01-27T05:08:36;4.50;52.60
21807;DHT22;11065;50.786;7.840;2024-01-27T05:11:04;4.40;52.50
21807;DHT22;11065;50.786;7.840;2024-01-27T05:13:32;4.40;52.60
21807;DHT22;11065;50.786;7.840;2024-01-27T05:16:00;4.40;52.60
21807;DHT22;11065;50.786;7.840;2024-01-27T05:18:29;4.40;52.70
21807;DHT22;11065;50.786;7.840;2024-01-27T05:20:57;4.30;52.60
21807;DHT22;11065;50.786;7.840;2024-01-27T05:23:26;4.30;52.70
21807;DHT22;11065;50.786;7.840;2024-01-27T05:25:54;4.30;52.70
21807;DHT22;11065;50.786;7.840;2024-01-27T05:28:21;4.30;52.80
21807;DHT22;11065;50.786;7.840;2024-01-27T05:30:49;4.20;52.80
21807;DHT22;11065;50.786;7.840;2024-01-27T05:33:18;4.20;52.80
21807;DHT22;11065;50.786;7.840;2024-01-27T05:35:47;4.20;52.80
21807;DHT22;11065;50.786;7.840;2024-01-27T05:38:15;4.20;52.90
21807;DHT22;11065;50.786;7.840;2024-01-27T05:40:43;4.20;52.90
21807;DHT22;11065;50.786;7.840;2024-01-27T05:43:11;4.10;52.80
21807;DHT22;11065;50.786;7.840;2024-01-27T05:45:39;4.20;52.90
21807;DHT22;11065;50.786;7.840;2024-01-27T05:48:07;4.10;52.80
21807;DHT22;11065;50.786;7.840;2024-01-27T05:50:35;4.10;52.90
21807;DHT22;11065;50.786;7.840;2024-01-27T05:53:05;4.10;52.90
21807;DHT22;11065;50.786;7.840;2024-01-27T05:55:33;4.00;52.90
21807;DHT22;11065;50.786;7.840;2024-01-27T05:58:01;4.00;52.90
21807;DHT22;11065;50.786;7.840;2024-01-27T06:00:29;4.00;52.90
21807;DHT22;11065;50.786;7.840;2024-01-27T06:02:56;4.00;53.00
21807;DHT22;11065;50.786;7.840;2024-01-27T06:05:26;3.90;53.10
21807;DHT22;11065;50.786;7.840;2024-01-27T06:07:54;3.90;53.10
21807;DHT22;11065;50.786;7.840;2024-01-27T06:10:24;3.90;53.10
21807;DHT22;11065;50.786;7.840;2024-01-27T06:12:53;3.90;53.20
21807;DHT22;11065;50.786;7.840;2024-01-27T06:15:21;3.90;53.20
21807;DHT22;11065;50.786;7.840;2024-01-27T06:17:50;3.90;53.20
21807;DHT22;11065;50.786;7.840;2024-01-27T06:20:18;3.80;53.10
21807;DHT22;11065;50.786;7.840;2024-01-27T06:22:46;3.90;53.10
21807;DHT22;11065;50.786;7.840;2024-01-27T06:25:14;3.80;53.10
21807;DHT22;11065;50.786;7.840;2024-01-27T06:27:44;3.80;53.10
21807;DHT22;11065;50.786;7.840;2024-01-27T06:30:13;3.70;53.10
21807;DHT22;11065;50.786;7.840;2024-01-27T06:32:42;3.70;53.10
21807;DHT22;11065;50.786;7.840;2024-01-27T06:35:10;3.70;53.20
21807;DHT22;11065;50.786;7.840;2024-01-27T06:37:38;3.70;53.20
21807;DHT22;11065;50.786;7.840;2024-01-27T06:40:07;3.70;53.20
21807;DHT22;11065;50.786;7.840;2024-01-27T06:42:35;3.60;53.20
21807;DHT22;11065;50.786;7.840;2024-01-27T06:45:06;3.60;53.20
21807;DHT22;11065;50.786;7.840;2024-01-27T06:47:34;3.60;53.20
21807;DHT22;11065;50.786;7.840;2024-01-27T06:50:02;3.60;53.30
21807;DHT22;11065;50.786;7.840;2024-01-27T06:52:30;3.60;53.30
21807;DHT22;11065;50.786;7.840;2024-01-27T06:54:58;3.60;53.30
21807;DHT22;11065;50.786;7.840;2024-01-27T06:57:26;3.60;53.20
21807;DHT22;11065;50.786;7.840;2024-01-27T06:59:54;3.60;53.20
21807;DHT22;11065;50.786;7.840;2024-01-27T07:02:24;3.60;53.20
21807;DHT22;11065;50.786;7.840;2024-01-27T07:04:53;3.50;53.20
21807;DHT22;11065;50.786;7.840;2024-01-27T07:07:23;3.50;53.20
21807;DHT22;11065;50.786;7.840;2024-01-27T07:09:52;3.50;53.30
21807;DHT22;11065;50.786;7.840;2024-01-27T07:12:20;3.50;53.30
21807;DHT22;11065;50.786;7.840;2024-01-27T07:14:48;3.50;53.30
21807;DHT22;11065;50.786;7.840;2024-01-27T07:17:16;3.50;53.30
21807;DHT22;11065;50.786;7.840;2024-01-27T07:19:45;3.50;53.40
21807;DHT22;11065;50.786;7.840;2024-01-27T07:22:13;3.50;53.40
21807;DHT22;11065;50.786;7.840;2024-01-27T07:24:41;3.50;53.30
21807;DHT22;11065;50.786;7.840;2024-01-27T07:27:12;3.40;53.30
21807;DHT22;11065;50.786;7.840;2024-01-27T07:29:40;3.50;53.40
21807;DHT22;11065;50.786;7.840;2024-01-27T07:32:08;3.40;53.40
21807;DHT22;11065;50.786;7.840;2024-01-27T07:34:41;3.40;53.40
21807;DHT22;11065;50.786;7.840;2024-01-27T07:37:10;3.40;53.40
21807;DHT22;11065;50.786;7.840;2024-01-27T07:39:38;3.50;53.40
21807;DHT22;11065;50.786;7.840;2024-01-27T07:42:07;3.40;53.40
21807;DHT22;11065;50.786;7.840;2024-01-27T07:44:34;3.40;53.50
21807;DHT22;11065;50.786;7.840;2024-01-27T07:47:03;3.40;53.50
21807;DHT22;11065;50.786;7.840;2024-01-27T07:49:31;3.40;53.40
21807;DHT22;11065;50.786;7.840;2024-01-27T07:51:59;3.40;53.40
21807;DHT22;11065;50.786;7.840;2024-01-27T07:54:28;3.40;53.50
21807;DHT22;11065;50.786;7.840;2024-01-27T07:56:58;3.40;53.50
21807;DHT22;11065;50.786;7.840;2024-01-27T07:59:26;3.40;53.60
21807;DHT22;11065;50.786;7.840;2024-01-27T08:01:54;3.40;53.50
21807;DHT22;11065;50.786;7.840;2024-01-27T08:04:22;3.40;53.60
21807;DHT22;11065;50.786;7.840;2024-01-27T08:06:50;3.40;53.60
21807;DHT22;11065;50.786;7.840;2024-01-27T08:09:18;3.50;53.70
21807;DHT22;11065;50.786;7.840;2024-01-27T08:11:48;3.50;53.70
21807;DHT22;11065;50.786;7.840;2024-01-27T08:14:19;3.50;53.80
21807;DHT22;11065;50.786;7.840;2024-01-27T08:16:47;3.50;53.80
21807;DHT22;11065;50.786;7.840;2024-01-27T08:19:15;3.50;53.80
21807;DHT22;11065;50.786;7.840;2024-01-27T08:21:47;3.50;53.80
21807;DHT22;11065;50.786;7.840;2024-01-27T08:24:15;3.50;53.80
21807;DHT22;11065;50.786;7.840;2024-01-27T08:26:43;3.60;53.80
21807;DHT22;11065;50.786;7.840;2024-01-27T08:29:14;3.60;53.80
21807;DHT22;11065;50.786;7.840;2024-01-27T08:31:42;3.60;53.80
21807;DHT22;11065;50.786;7.840;2024-01-27T08:34:10;3.60;53.80
21807;DHT22;11065;50.786;7.840;2024-01-27T08:36:39;3.60;53.70
21807;DHT22;11065;50.786;7.840;2024-01-27T08:39:07;3.70;53.80
21807;DHT22;11065;50.786;7.840;2024-01-27T08:41:39;3.70;53.80
21807;DHT22;11065;50.786;7.840;2024-01-27T08:44:07;3.70;53.80
21807;DHT22;11065;50.786;7.840;2024-01-27T08:46:36;3.70;53.90
21807;DHT22;11065;50.786;7.840;2024-01-27T08:49:04;3.70;53.90
21807;DHT22;11065;50.786;7.840;2024-01-27T08:51:33;3.70;54.00
21807;DHT22;11065;50.786;7.840;2024-01-27T08:54:01;3.70;54.00
21807;DHT22;11065;50.786;7.840;2024-01-27T08:56:30;3.80;54.00
21807;DHT22;11065;50.786;7.840;2024-01-27T08:58:57;3.80;54.00
21807;DHT22;11065;50.786;7.840;2024-01-27T09:01:25;3.80;53.90
21807;DHT22;11065;50.786;7.840;2024-01-27T09:03:55;3.80;53.90
21807;DHT22;11065;50.786;7.840;2024-01-27T09:06:23;3.90;54.00
21807;DHT22;11065;50.786;7.840;2024-01-27T09:08:51;3.90;54.20
21807;DHT22;11065;50.786;7.840;2024-01-27T09:11:19;4.00;54.60
21807;DHT22;11065;50.786;7.840;2024-01-27T09:13:48;4.20;55.10
21807;DHT22;11065;50.786;7.840;2024-01-27T09:16:18;4.40;55.40
21807;DHT22;11065;50.786;7.840;2024-01-27T09:18:46;4.60;55.50
21807;DHT22;11065;50.786;7.840;2024-01-27T09:21:18;4.90;56.10
21807;DHT22;11065;50.786;7.840;2024-01-27T09:23:47;5.50;57.60
21807;DHT22;11065;50.786;7.840;2024-01-27T09:26:15;6.30;59.00
21807;DHT22;11065;50.786;7.840;2024-01-27T09:28:45;7.20;60.70
21807;DHT22;11065;50.786;7.840;2024-01-27T09:31:21;8.30;60.80
21807;DHT22;11065;50.786;7.840;2024-01-27T09:33:50;9.40;60.80
21807;DHT22;11065;50.786;7.840;2024-01-27T09:36:20;10.50;60.10
21807;DHT22;11065;50.786;7.840;2024-01-27T09:38:48;11.60;59.20
21807;DHT22;11065;50.786;7.840;2024-01-27T09:41:17;12.60;58.60
21807;DHT22;11065;50.786;7.840;2024-01-27T09:43:46;13.50;57.80
21807;DHT22;11065;50.786;7.840;2024-01-27T09:46:15;14.40;56.90
21807;DHT22;11065;50.786;7.840;2024-01-27T09:48:43;15.30;55.90
21807;DHT22;11065;50.786;7.840;2024-01-27T09:51:11;16.10;54.50
21807;DHT22;11065;50.786;7.840;2024-01-27T09:53:41;16.60;53.00
21807;DHT22;11065;50.786;7.840;2024-01-27T09:56:09;16.90;51.00
21807;DHT22;11065;50.786;7.840;2024-01-27T09:58:38;17.00;50.00
21807;DHT22;11065;50.786;7.840;2024-01-27T10:01:08;16.90;49.10
21807;DHT22;11065;50.786;7.840;2024-01-27T10:03:40;16.60;47.70
21807;DHT22;11065;50.786;7.840;2024-01-27T10:06:09;16.20;46.80
21807;DHT22;11065;50.786;7.840;2024-01-27T10:08:37;15.70;46.20
21807;DHT22;11065;50.786;7.840;2024-01-27T10:11:09;15.20;45.80
21807;DHT22;11065;50.786;7.840;2024-01-27T10:13:37;14.60;45.90
21807;DHT22;11065;50.786;7.840;2024-01-27T10:16:05;14.20;46.60
21807;DHT22;11065;50.786;7.840;2024-01-27T10:18:34;13.90;47.30
21807;DHT22;11065;50.786;7.840;2024-01-27T10:21:12;13.60;47.80
21807;DHT22;11065;50.786;7.840;2024-01-27T10:23:41;13.40;47.80
21807;DHT22;11065;50.786;7.840;2024-01-27T10:26:10;13.40;49.00
21807;DHT22;11065;50.786;7.840;2024-01-27T10:28:39;13.60;50.30
21807;DHT22;11065;50.786;7.840;2024-01-27T10:31:09;14.00;51.60
21807;DHT22;11065;50.786;7.840;2024-01-27T10:33:37;14.60;52.50
21807;DHT22;11065;50.786;7.840;2024-01-27T10:36:06;15.30;52.40
21807;DHT22;11065;50.786;7.840;2024-01-27T10:38:35;16.10;52.40
21807;DHT22;11065;50.786;7.840;2024-01-27T10:41:07;16.80;51.10
21807;DHT22;11065;50.786;7.840;2024-01-27T10:43:39;17.50;49.80
21807;DHT22;11065;50.786;7.840;2024-01-27T10:46:08;18.30;50.00
21807;DHT22;11065;50.786;7.840;2024-01-27T10:48:37;18.90;49.70
21807;DHT22;11065;50.786;7.840;2024-01-27T10:51:08;19.50;49.30
21807;DHT22;11065;50.786;7.840;2024-01-27T10:53:37;20.10;48.70
21807;DHT22;11065;50.786;7.840;2024-01-27T10:56:07;20.70;48.60
21807;DHT22;11065;50.786;7.840;2024-01-27T10:58:39;21.20;48.20
21807;DHT22;11065;50.786;7.840;2024-01-27T11:01:10;21.70;47.30
21807;DHT22;11065;50.786;7.840;2024-01-27T11:03:39;22.20;47.10
21807;DHT22;11065;50.786;7.840;2024-01-27T11:06:08;22.60;46.60
21807;DHT22;11065;50.786;7.840;2024-01-27T11:08:38;23.00;46.30
21807;DHT22;11065;50.786;7.840;2024-01-27T11:11:10;23.30;44.80
21807;DHT22;11065;50.786;7.840;2024-01-27T11:13:40;23.60;45.10
21807;DHT22;11065;50.786;7.840;2024-01-27T11:16:15;23.90;44.10
21807;DHT22;11065;50.786;7.840;2024-01-27T11:18:44;24.10;43.20
21807;DHT22;11065;50.786;7.840;2024-01-27T11:21:14;24.40;43.90
21807;DHT22;11065;50.786;7.840;2024-01-27T11:23:43;24.60;43.40
21807;DHT22;11065;50.786;7.840;2024-01-27T11:26:19;24.80;43.30
21807;DHT22;11065;50.786;7.840;2024-01-27T11:28:49;25.10;42.20
21807;DHT22;11065;50.786;7.840;2024-01-27T11:31:18;25.20;42.40
21807;DHT22;11065;50.786;7.840;2024-01-27T11:33:50;25.40;42.20
21807;DHT22;11065;50.786;7.840;2024-01-27T11:36:21;25.50;41.70
21807;DHT22;11065;50.786;7.840;2024-01-27T11:38:50;25.70;41.50
21807;DHT22;11065;50.786;7.840;2024-01-27T11:41:26;25.80;41.40
21807;DHT22;11065;50.786;7.840;2024-01-27T11:43:56;25.90;39.80
21807;DHT22;11065;50.786;7.840;2024-01-27T11:46:26;25.90;40.10
21807;DHT22;11065;50.786;7.840;2024-01-27T11:48:54;25.90;40.20
21807;DHT22;11065;50.786;7.840;2024-01-27T11:51:22;26.00;39.80
21807;DHT22;11065;50.786;7.840;2024-01-27T11:53:52;26.00;39.70
21807;DHT22;11065;50.786;7.840;2024-01-27T11:56:20;26.00;39.10
21807;DHT22;11065;50.786;7.840;2024-01-27T11:58:48;26.00;39.20
21807;DHT22;11065;50.786;7.840;2024-01-27T12:01:19;25.90;39.00
21807;DHT22;11065;50.786;7.840;2024-01-27T12:03:47;26.00;38.60
21807;DHT22;11065;50.786;7.840;2024-01-27T12:06:15;25.90;38.60
21807;DHT22;11065;50.786;7.840;2024-01-27T12:08:44;25.90;38.40
21807;DHT22;11065;50.786;7.840;2024-01-27T12:11:14;25.90;38.40
21807;DHT22;11065;50.786;7.840;2024-01-27T12:13:46;26.00;38.10
21807;DHT22;11065;50.786;7.840;2024-01-27T12:16:15;25.90;36.50
21807;DHT22;11065;50.786;7.840;2024-01-27T12:18:45;25.80;36.90
21807;DHT22;11065;50.786;7.840;2024-01-27T12:21:13;25.80;36.60
21807;DHT22;11065;50.786;7.840;2024-01-27T12:23:54;25.70;36.70
21807;DHT22;11065;50.786;7.840;2024-01-27T12:26:23;25.70;35.60
21807;DHT22;11065;50.786;7.840;2024-01-27T12:28:54;25.60;36.40
21807;DHT22;11065;50.786;7.840;2024-01-27T12:31:24;25.60;36.10
21807;DHT22;11065;50.786;7.840;2024-01-27T12:33:56;25.50;35.90
21807;DHT22;11065;50.786;7.840;2024-01-27T12:36:26;25.50;35.20
21807;DHT22;11065;50.786;7.840;2024-01-27T12:38:55;25.40;35.40
21807;DHT22;11065;50.786;7.840;2024-01-27T12:41:24;25.30;35.20
21807;DHT22;11065;50.786;7.840;2024-01-27T12:43:52;25.10;34.50
21807;DHT22;11065;50.786;7.840;2024-01-27T12:46:20;25.00;35.00
21807;DHT22;11065;50.786;7.840;2024-01-27T12:48:49;24.90;34.90
21807;DHT22;11065;50.786;7.840;2024-01-27T12:51:19;24.90;35.20
21807;DHT22;11065;50.786;7.840;2024-01-27T12:53:47;24.80;34.80
21807;DHT22;11065;50.786;7.840;2024-01-27T12:56:15;24.80;35.00
21807;DHT22;11065;50.786;7.840;2024-01-27T12:58:43;24.80;34.70
21807;DHT22;11065;50.786;7.840;2024-01-27T13:01:11;24.80;34.60
21807;DHT22;11065;50.786;7.840;2024-01-27T13:03:39;24.70;34.30
21807;DHT22;11065;50.786;7.840;2024-01-27T13:06:12;24.70;34.00
21807;DHT22;11065;50.786;7.840;2024-01-27T13:08:42;24.60;34.00
21807;DHT22;11065;50.786;7.840;2024-01-27T13:11:10;24.50;33.80
21807;DHT22;11065;50.786;7.840;2024-01-27T13:13:40;24.40;34.00
21807;DHT22;11065;50.786;7.840;2024-01-27T13:16:08;24.30;33.90
21807;DHT22;11065;50.786;7.840;2024-01-27T13:18:36;24.20;33.80
21807;DHT22;11065;50.786;7.840;2024-01-27T13:21:05;24.10;33.50
21807;DHT22;11065;50.786;7.840;2024-01-27T13:23:33;24.00;33.10
21807;DHT22;11065;50.786;7.840;2024-01-27T13:26:03;23.80;32.10
21807;DHT22;11065;50.786;7.840;2024-01-27T13:28:44;23.50;32.50
21807;DHT22;11065;50.786;7.840;2024-01-27T13:31:12;23.40;33.00
21807;DHT22;11065;50.786;7.840;2024-01-27T13:33:40;23.20;32.70
21807;DHT22;11065;50.786;7.840;2024-01-27T13:36:09;23.10;33.00
21807;DHT22;11065;50.786;7.840;2024-01-27T13:38:37;22.90;33.10
21807;DHT22;11065;50.786;7.840;2024-01-27T13:41:06;22.90;32.80
21807;DHT22;11065;50.786;7.840;2024-01-27T13:43:34;22.80;33.20
21807;DHT22;11065;50.786;7.840;2024-01-27T13:46:02;22.80;33.30
21807;DHT22;11065;50.786;7.840;2024-01-27T13:48:31;22.80;33.20
21807;DHT22;11065;50.786;7.840;2024-01-27T13:50:59;22.70;33.00
21807;DHT22;11065;50.786;7.840;2024-01-27T13:53:27;22.70;33.10
21807;DHT22;11065;50.786;7.840;2024-01-27T13:56:13;22.60;32.70
21807;DHT22;11065;50.786;7.840;2024-01-27T13:58:42;22.50;32.20
21807;DHT22;11065;50.786;7.840;2024-01-27T14:01:10;22.40;32.90
21807;DHT22;11065;50.786;7.840;2024-01-27T14:03:38;22.30;32.20
21807;DHT22;11065;50.786;7.840;2024-01-27T14:06:06;22.20;32.00
21807;DHT22;11065;50.786;7.840;2024-01-27T14:08:39;22.00;32.60
21807;DHT22;11065;50.786;7.840;2024-01-27T14:11:07;21.80;32.30
21807;DHT22;11065;50.786;7.840;2024-01-27T14:13:36;21.60;32.00
21807;DHT22;11065;50.786;7.840;2024-01-27T14:16:05;21.40;32.40
21807;DHT22;11065;50.786;7.840;2024-01-27T14:18:33;21.20;32.70
21807;DHT22;11065;50.786;7.840;2024-01-27T14:21:01;21.10;33.00
21807;DHT22;11065;50.786;7.840;2024-01-27T14:23:29;21.00;32.80
21807;DHT22;11065;50.786;7.840;2024-01-27T14:25:58;20.90;33.00
21807;DHT22;11065;50.786;7.840;2024-01-27T14:28:26;20.80;33.20
21807;DHT22;11065;50.786;7.840;2024-01-27T14:30:55;20.70;33.00
21807;DHT22;11065;50.786;7.840;2024-01-27T14:33:23;20.60;32.90
21807;DHT22;11065;50.786;7.840;2024-01-27T14:35:51;20.40;32.80
21807;DHT22;11065;50.786;7.840;2024-01-27T14:38:20;20.30;32.50
21807;DHT22;11065;50.786;7.840;2024-01-27T14:40:47;20.20;32.80
21807;DHT22;11065;50.786;7.840;2024-01-27T14:43:16;20.00;32.60
21807;DHT22;11065;50.786;7.840;2024-01-27T14:45:45;19.80;32.50
21807;DHT22;11065;50.786;7.840;2024-01-27T14:48:15;19.60;32.70
21807;DHT22;11065;50.786;7.840;2024-01-27T14:50:46;19.40;32.70
21807;DHT22;11065;50.786;7.840;2024-01-27T14:53:19;19.30;33.10
21807;DHT22;11065;50.786;7.840;2024-01-27T14:55:47;19.10;33.30
21807;DHT22;11065;50.786;7.840;2024-01-27T14:58:15;19.00;33.50
21807;DHT22;11065;50.786;7.840;2024-01-27T15:00:43;18.80;33.40
21807;DHT22;11065;50.786;7.840;2024-01-27T15:03:11;18.60;33.40
21807;DHT22;11065;50.786;7.840;2024-01-27T15:05:41;18.30;33.30
21807;DHT22;11065;50.786;7.840;2024-01-27T15:08:09;18.10;33.40
21807;DHT22;11065;50.786;7.840;2024-01-27T15:10:38;17.70;33.50
21807;DHT22;11065;50.786;7.840;2024-01-27T15:13:06;17.40;33.60
21807;DHT22;11065;50.786;7.840;2024-01-27T15:15:35;17.20;33.70
21807;DHT22;11065;50.786;7.840;2024-01-27T15:18:03;16.90;33.80
21807;DHT22;11065;50.786;7.840;2024-01-27T15:20:31;16.60;34.00
21807;DHT22;11065;50.786;7.840;2024-01-27T15:23:01;16.30;34.20
21807;DHT22;11065;50.786;7.840;2024-01-27T15:25:29;16.00;34.40
21807;DHT22;11065;50.786;7.840;2024-01-27T15:27:57;15.70;34.50
21807;DHT22;11065;50.786;7.840;2024-01-27T15:30:26;15.40;34.60
21807;DHT22;11065;50.786;7.840;2024-01-27T15:32:54;15.20;34.80
21807;DHT22;11065;50.786;7.840;2024-01-27T15:35:22;15.00;35.00
21807;DHT22;11065;50.786;7.840;2024-01-27T15:37:50;14.70;35.20
21807;DHT22;11065;50.786;7.840;2024-01-27T15:40:20;14.50;35.40
21807;DHT22;11065;50.786;7.840;2024-01-27T15:42:48;14.20;35.50
21807;DHT22;11065;50.786;7.840;2024-01-27T15:45:17;14.00;35.60
21807;DHT22;11065;50.786;7.840;2024-01-27T15:47:45;13.80;35.70
21807;DHT22;11065;50.786;7.840;2024-01-27T15:50:13;13.60;35.80